This is the latest recevied weather packets stored in our database for station/object KA8OAD-10. If no packets are shown the sender has not sent any weather packets the latest 10 day(s).
| Time | Temp. | Humidity | Pressure | Rain* | Wind** | Luminosity | Snow |
|---|---|---|---|---|---|---|---|
| 1787606163 | 22.78° C | 57% | 1015.1 hPa | 0 mm | - | 77 W/m² | - |
| 1787605865 | 22.78° C | 57% | 1015.1 hPa | 0 mm | - | 65 W/m² | - |
| 1787605563 | 22.78° C | 57% | 1015.1 hPa | 0 mm | - | 95 W/m² | - |
| 1787605263 | 22.78° C | 56% | 1015 hPa | 0 mm | - | 88 W/m² | - |
| 1787604961 | 22.78° C | 55% | 1015 hPa | 0 mm | - | 144 W/m² | - |
| 1787604360 | 22.22° C | 56% | 1014.9 hPa | 0 mm | - | 114 W/m² | - |
| 1787604065 | 22.22° C | 56% | 1014.8 hPa | 0 mm | - | 91 W/m² | - |
| 1787603464 | 22.22° C | 56% | 1014.9 hPa | 0 mm | - | 100 W/m² | - |
| 1787602260 | 22.78° C | 56% | 1015 hPa | 0 mm | - | 97 W/m² | - |
| 1787601964 | 22.78° C | 54% | 1014.9 hPa | 0 mm | - | 65 W/m² | - |
| 1787601363 | 22.78° C | 55% | 1015.1 hPa | 0 mm | - | 97 W/m² | - |
| 1787600763 | 22.78° C | 55% | 1015.2 hPa | 0 mm | - | 130 W/m² | - |
| 1787600161 | 23.33° C | 55% | 1015.2 hPa | 0 mm | - | 153 W/m² | - |
| 1787599563 | 23.89° C | 51% | 1015.3 hPa | 0 mm | - | 97 W/m² | - |
| 1787599265 | 23.89° C | 53% | 1015.4 hPa | 0 mm | - | 84 W/m² | - |
| 1787598964 | 23.89° C | 50% | 1015.4 hPa | 0 mm | - | 114 W/m² | - |
| 1787598363 | 24.44° C | 52% | 1015.6 hPa | 0 mm | - | 837 W/m² | - |
| 1787597761 | 24.44° C | 50% | 1015.3 hPa | 0 mm | - | 826 W/m² | - |
| 1787597463 | 24.44° C | 50% | 1015.4 hPa | 0 mm | - | 882 W/m² | - |
| 1787597160 | 25° C | 49% | 1015.3 hPa | 0 mm | - | 174 W/m² | - |
| 1787596865 | 25° C | 49% | 1015.4 hPa | 0 mm | - | 130 W/m² | - |
| 1787596563 | 25° C | 48% | 1015.3 hPa | 0 mm | - | 875 W/m² | - |
| 1787595962 | 25° C | 50% | 1015.4 hPa | 0 mm | - | 863 W/m² | - |
| 1787595062 | 25° C | 48% | 1015.2 hPa | 0 mm | - | 853 W/m² | - |
| 1787594764 | 25° C | 50% | 1015.4 hPa | 0 mm | - | 921 W/m² | - |
* Rain latest hour (hover to see other rain measurements)
** Current wind speed in m/s (hover to see current wind gust speed)